Davis City, Iowa
Current Conditions -  °F | °C
As of 7:53 AM on Friday 31 Oct 2014 (Local Time) from KLWD Reporting Station
Clear Clear  
Wind Chill: 19°   Ceiling: Unl
Heat Index: 29°   Visibility: 10mi
Dew Point: 17°   Wind: 12mph
Humidity: 61%   Direction: 360°N
Pressure: 30.42"   Gusts: 21mph
Location:  40.64°N, 93.81°W
Report Text: KLWD 311253Z AUTO 36010G18KT 10SM CLR M02/M08 A3042 RMK AO2 SNB1154E04B20E30 SLP310 P0000 T10171083
Loading
Personal Weather Stations






























Interactive Weather Map
Tropical Storm Tracking
New forecast layout! Learn more

10-Day Weather Forecast

Advertisements
Track Severe Weather on mobile